Flight Track Log - Related Links

Times and Time Zones

All times are in EDT time to prevent confusion due to time zone crossing. See the XOJ552 flight status page for this flight to view local times or setup timezone preferences in your user account.

Time Position Orientation Groundspeed Altitude Reporting Facility
EDT Latitude Longitude Course Direction KTS MPH feet Rate Location/Type
Thu 04:56:56 PM 44.2558 -74.2256 186° South 329 379 11,200  Level Boston Center
Thu 04:57:56 PM 44.1686 -74.2028 169° South 313 360 14,700 3,600 Climbing Boston Center
Thu 04:58:56 PM 44.0772 -74.1769 169° South 320 368 18,400 3,550 Climbing Boston Center
Thu 04:59:56 PM 43.9778 -74.1481 168° South 341 392 21,800 1,800 Climbing Boston Center
Thu 05:00:56 PM 43.8678 -74.1161 168° South 378 435 22,000 100 Climbing Boston Center
Thu 05:01:56 PM 43.7558 -74.0842 168° South 395 455 22,000  Level Boston Center
Thu 05:02:56 PM 43.6561 -74.0558 168° South 408 470 22,000  Level Boston Center
Thu 05:03:56 PM 43.5461 -74.0269 169° South 408 470 22,000  Level Boston Center
Thu 05:04:56 PM 43.4361 -73.9956 168° South 408 470 22,000  Level Boston Center
Thu 05:05:56 PM 43.3156 -73.9639 169° South 408 470 22,000  Level Boston Center
Thu 05:06:56 PM 43.2056 -73.9328 168° South 408 470 22,000  Level Boston Center
Thu 05:07:56 PM 43.0997 -73.9017 168° South 408 470 22,000 -100 Level Boston Center
Thu 05:08:56 PM 42.9894 -73.8733 169° South 408 470 21,800 -1,045 Descending Boston Center
Thu 05:10:08 PM 42.8836 -73.8428 168° South 403 464 19,700 -1,864 Descending Boston Center
Thu 05:11:08 PM 42.7714 -73.8175 171° South 389 448 17,700 -1,950 Descending Boston Center
Thu 05:12:08 PM 42.6814 -73.8578 198° South 356 410 15,800 -1,700 Descending Boston Center
Thu 05:13:08 PM 42.6161 -73.9072 209° Southwest 347 399 14,300 -850 Descending Boston Center
Thu 05:14:08 PM 42.5150 -73.9781 207° Southwest 319 367 14,100 -100 Descending Boston Center
Thu 05:15:08 PM 42.4392 -74.0325 208° Southwest 319 367 14,100  Level Boston Center
Thu 05:16:08 PM 42.3614 -74.0894 208° Southwest 313 360 14,100 -50 Level Boston Center
Thu 05:17:08 PM 42.2856 -74.1464 209° Southwest 313 360 14,000 -50 Descending Boston Center
Thu 05:18:08 PM 42.2094 -74.2031 209° Southwest 319 367 14,000  Level Boston Center
Thu 05:19:08 PM 42.1294 -74.2597 208° Southwest 319 367 14,000  Level Boston Center
Thu 05:20:08 PM 42.0433 -74.3019 200° South 326 375 14,000  Level Boston Center
Thu 05:21:08 PM 41.9508 -74.3439 199° South 344 396 14,000 -200 Level Boston Center
Thu 05:22:08 PM 41.8606 -74.3831 198° South 349 402 13,600 -1,000 Descending Boston Center
Thu 05:23:08 PM 41.7786 -74.4194 198° South 339 390 12,000 -1,600 Descending Boston Center
Thu 05:24:08 PM 41.7050 -74.4561 200° South 304 350 10,400 -1,500 Descending Boston Center
Thu 05:25:08 PM 41.6336 -74.4872 198° South 289 333 9,000 -1,600 Descending Boston Center
Thu 05:26:08 PM 41.5603 -74.5181 197° South 284 327 7,200 -1,500 Descending Boston Center
Thu 05:27:08 PM 41.4908 -74.5492 199° South 284 327 6,000 -387 Descending Boston Center
Thu 05:29:14 PM 41.3500 -74.5500 180° South 287 330 6,000 -258 Level New York TRACON
Thu 05:30:14 PM 41.3000 -74.4667 129° Southeast 286 329 5,200 -900 Descending New York TRACON
Thu 05:31:14 PM 41.2333 -74.3833 137° Southeast 289 333 4,200 -550 Descending New York TRACON
Thu 05:32:14 PM 41.2000 -74.3167 124° Southeast 279 321 4,100 -574 Descending New York TRACON
Thu 05:33:09 PM 41.1500 -74.2500 135° Southeast 268 308 3,100 -522 Descending New York TRACON
Thu 05:34:09 PM 41.1000 -74.1667 129° Southeast 267 307 3,100 -400 Level New York TRACON
Thu 05:35:09 PM 41.0500 -74.1167 143° Southeast 263 303 2,300 -500 Descending New York TRACON
Thu 05:36:09 PM 41.0000 -74.0833 153° Southeast 207 238 2,100 -150 Descending New York TRACON
Thu 05:37:09 PM 40.9500 -74.0500 153° Southeast 176 203 2,000 -500 Descending New York TRACON
Thu 05:38:09 PM 40.9000 -74.0500 180° South 149 171 1,100 -800 Descending New York TRACON
Thu 05:39:09 PM 40.8667 -74.0500 180° South 123 142 400 -700 Descending New York TRACON

Login

Don't have an account? Register now (free) for customized features, flight alerts, and more!